sensor_id;sensor_type;location;lat;lon;timestamp;temperature;humidity
26081;DHT22;13991;51.174;4.438;2023-03-11T00:00:18;4.00;99.90
26081;DHT22;13991;51.174;4.438;2023-03-11T00:02:45;4.00;99.90
26081;DHT22;13991;51.174;4.438;2023-03-11T00:05:18;4.00;99.90
26081;DHT22;13991;51.174;4.438;2023-03-11T00:07:44;4.00;99.90
26081;DHT22;13991;51.174;4.438;2023-03-11T00:10:24;3.90;99.90
26081;DHT22;13991;51.174;4.438;2023-03-11T00:12:50;3.80;99.90
26081;DHT22;13991;51.174;4.438;2023-03-11T00:15:16;3.80;99.90
26081;DHT22;13991;51.174;4.438;2023-03-11T00:17:42;3.70;99.90
26081;DHT22;13991;51.174;4.438;2023-03-11T00:20:18;3.70;99.90
26081;DHT22;13991;51.174;4.438;2023-03-11T00:22:44;3.70;99.90
26081;DHT22;13991;51.174;4.438;2023-03-11T00:25:11;3.70;99.90
26081;DHT22;13991;51.174;4.438;2023-03-11T00:27:37;3.60;99.90
26081;DHT22;13991;51.174;4.438;2023-03-11T00:30:03;3.60;99.90
26081;DHT22;13991;51.174;4.438;2023-03-11T00:32:29;3.50;99.90
26081;DHT22;13991;51.174;4.438;2023-03-11T00:34:55;3.40;99.90
26081;DHT22;13991;51.174;4.438;2023-03-11T00:37:20;3.40;99.90
26081;DHT22;13991;51.174;4.438;2023-03-11T00:39:46;3.30;99.90
26081;DHT22;13991;51.174;4.438;2023-03-11T00:42:11;3.30;99.90
26081;DHT22;13991;51.174;4.438;2023-03-11T00:44:37;3.30;99.90
26081;DHT22;13991;51.174;4.438;2023-03-11T00:47:03;3.30;99.90
26081;DHT22;13991;51.174;4.438;2023-03-11T00:49:29;3.50;99.90
26081;DHT22;13991;51.174;4.438;2023-03-11T00:51:54;3.50;99.90
26081;DHT22;13991;51.174;4.438;2023-03-11T00:54:20;3.40;99.90
26081;DHT22;13991;51.174;4.438;2023-03-11T00:56:46;3.40;99.90
26081;DHT22;13991;51.174;4.438;2023-03-11T00:59:11;3.50;99.90
26081;DHT22;13991;51.174;4.438;2023-03-11T01:01:37;3.40;99.90
26081;DHT22;13991;51.174;4.438;2023-03-11T01:04:03;3.40;99.90
26081;DHT22;13991;51.174;4.438;2023-03-11T01:06:28;3.40;99.90
26081;DHT22;13991;51.174;4.438;2023-03-11T01:08:54;3.40;99.90
26081;DHT22;13991;51.174;4.438;2023-03-11T01:11:20;3.40;99.90
26081;DHT22;13991;51.174;4.438;2023-03-11T01:13:45;3.40;99.90
26081;DHT22;13991;51.174;4.438;2023-03-11T01:16:11;3.50;99.90
26081;DHT22;13991;51.174;4.438;2023-03-11T01:18:37;3.50;99.90
26081;DHT22;13991;51.174;4.438;2023-03-11T01:21:03;3.50;99.90
26081;DHT22;13991;51.174;4.438;2023-03-11T01:23:28;3.60;99.90
26081;DHT22;13991;51.174;4.438;2023-03-11T01:25:54;3.60;99.90
26081;DHT22;13991;51.174;4.438;2023-03-11T01:28:20;3.60;99.90
26081;DHT22;13991;51.174;4.438;2023-03-11T01:30:45;3.60;99.90
26081;DHT22;13991;51.174;4.438;2023-03-11T01:33:16;3.50;99.90
26081;DHT22;13991;51.174;4.438;2023-03-11T01:35:43;3.60;99.90
26081;DHT22;13991;51.174;4.438;2023-03-11T01:38:09;3.60;99.90
26081;DHT22;13991;51.174;4.438;2023-03-11T01:40:36;3.60;99.90
26081;DHT22;13991;51.174;4.438;2023-03-11T01:43:04;3.70;99.90
26081;DHT22;13991;51.174;4.438;2023-03-11T01:48:14;3.70;99.90
26081;DHT22;13991;51.174;4.438;2023-03-11T01:50:43;3.70;99.90
26081;DHT22;13991;51.174;4.438;2023-03-11T01:53:12;3.60;99.90
26081;DHT22;13991;51.174;4.438;2023-03-11T01:55:40;3.60;99.90
26081;DHT22;13991;51.174;4.438;2023-03-11T01:58:09;3.70;99.90
26081;DHT22;13991;51.174;4.438;2023-03-11T02:00:37;3.70;99.90
26081;DHT22;13991;51.174;4.438;2023-03-11T02:03:08;3.60;99.90
26081;DHT22;13991;51.174;4.438;2023-03-11T02:05:35;3.50;99.90
26081;DHT22;13991;51.174;4.438;2023-03-11T02:08:02;3.50;99.90
26081;DHT22;13991;51.174;4.438;2023-03-11T02:10:27;3.60;99.90
26081;DHT22;13991;51.174;4.438;2023-03-11T02:12:53;3.60;99.90
26081;DHT22;13991;51.174;4.438;2023-03-11T02:15:19;3.60;99.90
26081;DHT22;13991;51.174;4.438;2023-03-11T02:17:44;3.50;99.90
26081;DHT22;13991;51.174;4.438;2023-03-11T02:20:26;3.60;99.90
26081;DHT22;13991;51.174;4.438;2023-03-11T02:22:55;3.60;99.90
26081;DHT22;13991;51.174;4.438;2023-03-11T02:26:03;3.60;99.90
26081;DHT22;13991;51.174;4.438;2023-03-11T02:28:32;3.60;99.90
26081;DHT22;13991;51.174;4.438;2023-03-11T02:30:59;3.60;99.90
26081;DHT22;13991;51.174;4.438;2023-03-11T02:33:28;3.60;99.90
26081;DHT22;13991;51.174;4.438;2023-03-11T02:35:55;3.60;99.90
26081;DHT22;13991;51.174;4.438;2023-03-11T02:38:22;3.60;99.90
26081;DHT22;13991;51.174;4.438;2023-03-11T02:40:52;3.70;99.90
26081;DHT22;13991;51.174;4.438;2023-03-11T02:43:32;3.70;99.90
26081;DHT22;13991;51.174;4.438;2023-03-11T02:46:01;3.60;99.90
26081;DHT22;13991;51.174;4.438;2023-03-11T02:48:28;3.70;99.90
26081;DHT22;13991;51.174;4.438;2023-03-11T02:50:54;3.70;99.90
26081;DHT22;13991;51.174;4.438;2023-03-11T02:53:20;3.70;99.90
26081;DHT22;13991;51.174;4.438;2023-03-11T02:55:46;3.70;99.90
26081;DHT22;13991;51.174;4.438;2023-03-11T02:58:12;3.60;99.90
26081;DHT22;13991;51.174;4.438;2023-03-11T03:00:37;3.60;99.90
26081;DHT22;13991;51.174;4.438;2023-03-11T03:03:03;3.60;99.90
26081;DHT22;13991;51.174;4.438;2023-03-11T03:05:29;3.60;99.90
26081;DHT22;13991;51.174;4.438;2023-03-11T03:07:55;3.60;99.90
26081;DHT22;13991;51.174;4.438;2023-03-11T03:10:21;3.60;99.90
26081;DHT22;13991;51.174;4.438;2023-03-11T03:12:47;3.60;99.90
26081;DHT22;13991;51.174;4.438;2023-03-11T03:15:12;3.50;99.90
26081;DHT22;13991;51.174;4.438;2023-03-11T03:17:40;3.50;99.90
26081;DHT22;13991;51.174;4.438;2023-03-11T03:20:07;3.50;99.90
26081;DHT22;13991;51.174;4.438;2023-03-11T03:22:36;3.50;99.90
26081;DHT22;13991;51.174;4.438;2023-03-11T03:25:02;3.40;99.90
26081;DHT22;13991;51.174;4.438;2023-03-11T03:27:28;3.30;99.90
26081;DHT22;13991;51.174;4.438;2023-03-11T03:29:53;3.20;99.90
26081;DHT22;13991;51.174;4.438;2023-03-11T03:32:19;3.30;99.90
26081;DHT22;13991;51.174;4.438;2023-03-11T03:34:45;3.30;99.90
26081;DHT22;13991;51.174;4.438;2023-03-11T03:37:10;3.20;99.90
26081;DHT22;13991;51.174;4.438;2023-03-11T03:39:36;3.20;99.90
26081;DHT22;13991;51.174;4.438;2023-03-11T03:42:01;3.20;99.90
26081;DHT22;13991;51.174;4.438;2023-03-11T03:44:27;3.10;99.90
26081;DHT22;13991;51.174;4.438;2023-03-11T03:46:55;3.00;99.90
26081;DHT22;13991;51.174;4.438;2023-03-11T03:49:20;3.00;99.90
26081;DHT22;13991;51.174;4.438;2023-03-11T03:51:46;3.00;99.90
26081;DHT22;13991;51.174;4.438;2023-03-11T03:54:12;3.00;99.90
26081;DHT22;13991;51.174;4.438;2023-03-11T03:56:37;3.00;99.90
26081;DHT22;13991;51.174;4.438;2023-03-11T03:59:03;3.00;99.90
26081;DHT22;13991;51.174;4.438;2023-03-11T04:01:29;2.90;99.90
26081;DHT22;13991;51.174;4.438;2023-03-11T04:03:54;2.90;99.90
26081;DHT22;13991;51.174;4.438;2023-03-11T04:06:23;2.80;99.90
26081;DHT22;13991;51.174;4.438;2023-03-11T04:08:52;2.80;99.90
26081;DHT22;13991;51.174;4.438;2023-03-11T04:11:19;2.80;99.90
26081;DHT22;13991;51.174;4.438;2023-03-11T04:13:44;2.70;99.90
26081;DHT22;13991;51.174;4.438;2023-03-11T04:16:16;2.70;99.90
26081;DHT22;13991;51.174;4.438;2023-03-11T04:18:43;2.70;99.90
26081;DHT22;13991;51.174;4.438;2023-03-11T04:21:08;2.60;99.90
26081;DHT22;13991;51.174;4.438;2023-03-11T04:23:34;2.60;99.90
26081;DHT22;13991;51.174;4.438;2023-03-11T04:26:01;2.60;99.90
26081;DHT22;13991;51.174;4.438;2023-03-11T04:28:27;2.60;99.90
26081;DHT22;13991;51.174;4.438;2023-03-11T04:30:53;2.50;99.90
26081;DHT22;13991;51.174;4.438;2023-03-11T04:33:19;2.50;99.90
26081;DHT22;13991;51.174;4.438;2023-03-11T04:35:44;2.50;99.90
26081;DHT22;13991;51.174;4.438;2023-03-11T04:38:10;2.60;99.90
26081;DHT22;13991;51.174;4.438;2023-03-11T04:40:37;2.50;99.90
26081;DHT22;13991;51.174;4.438;2023-03-11T04:43:02;2.50;99.90
26081;DHT22;13991;51.174;4.438;2023-03-11T04:45:28;2.40;99.90
26081;DHT22;13991;51.174;4.438;2023-03-11T04:47:54;2.40;99.90
26081;DHT22;13991;51.174;4.438;2023-03-11T04:50:19;2.40;99.90
26081;DHT22;13991;51.174;4.438;2023-03-11T04:52:46;2.40;99.90
26081;DHT22;13991;51.174;4.438;2023-03-11T04:55:11;2.40;99.90
26081;DHT22;13991;51.174;4.438;2023-03-11T04:57:39;2.30;99.90
26081;DHT22;13991;51.174;4.438;2023-03-11T05:00:05;2.30;99.90
26081;DHT22;13991;51.174;4.438;2023-03-11T05:02:38;2.40;99.90
26081;DHT22;13991;51.174;4.438;2023-03-11T05:05:04;2.40;99.90
26081;DHT22;13991;51.174;4.438;2023-03-11T05:07:30;2.40;99.90
26081;DHT22;13991;51.174;4.438;2023-03-11T05:09:56;2.40;99.90
26081;DHT22;13991;51.174;4.438;2023-03-11T05:12:21;2.30;99.90
26081;DHT22;13991;51.174;4.438;2023-03-11T05:14:47;2.30;99.90
26081;DHT22;13991;51.174;4.438;2023-03-11T05:17:13;2.40;99.90
26081;DHT22;13991;51.174;4.438;2023-03-11T05:19:39;2.30;99.90
26081;DHT22;13991;51.174;4.438;2023-03-11T05:22:06;2.30;99.90
26081;DHT22;13991;51.174;4.438;2023-03-11T05:24:32;2.30;99.90
26081;DHT22;13991;51.174;4.438;2023-03-11T05:26:58;2.30;99.90
26081;DHT22;13991;51.174;4.438;2023-03-11T05:29:24;2.30;99.90
26081;DHT22;13991;51.174;4.438;2023-03-11T05:31:50;2.30;99.90
26081;DHT22;13991;51.174;4.438;2023-03-11T05:34:16;2.30;99.90
26081;DHT22;13991;51.174;4.438;2023-03-11T05:36:42;2.30;99.90
26081;DHT22;13991;51.174;4.438;2023-03-11T05:39:08;2.20;99.90
26081;DHT22;13991;51.174;4.438;2023-03-11T05:41:34;2.30;99.90
26081;DHT22;13991;51.174;4.438;2023-03-11T05:44:00;2.30;99.90
26081;DHT22;13991;51.174;4.438;2023-03-11T05:46:26;2.30;99.90
26081;DHT22;13991;51.174;4.438;2023-03-11T05:48:52;2.20;99.90
26081;DHT22;13991;51.174;4.438;2023-03-11T05:51:17;2.20;99.90
26081;DHT22;13991;51.174;4.438;2023-03-11T05:53:45;2.20;99.90
26081;DHT22;13991;51.174;4.438;2023-03-11T05:56:16;2.20;99.90
26081;DHT22;13991;51.174;4.438;2023-03-11T05:58:42;2.20;99.90
26081;DHT22;13991;51.174;4.438;2023-03-11T06:01:10;2.20;99.90
26081;DHT22;13991;51.174;4.438;2023-03-11T06:03:39;2.20;99.90
26081;DHT22;13991;51.174;4.438;2023-03-11T06:06:07;2.20;99.90
26081;DHT22;13991;51.174;4.438;2023-03-11T06:08:34;2.10;99.90
26081;DHT22;13991;51.174;4.438;2023-03-11T06:11:08;2.10;99.90
26081;DHT22;13991;51.174;4.438;2023-03-11T06:13:34;2.10;99.90
26081;DHT22;13991;51.174;4.438;2023-03-11T06:16:00;2.10;99.90
26081;DHT22;13991;51.174;4.438;2023-03-11T06:18:26;2.10;99.90
26081;DHT22;13991;51.174;4.438;2023-03-11T06:20:52;2.10;99.90
26081;DHT22;13991;51.174;4.438;2023-03-11T06:23:18;2.10;99.90
26081;DHT22;13991;51.174;4.438;2023-03-11T06:25:44;2.10;99.90
26081;DHT22;13991;51.174;4.438;2023-03-11T06:28:19;2.10;99.90
26081;DHT22;13991;51.174;4.438;2023-03-11T06:30:44;2.20;99.90
26081;DHT22;13991;51.174;4.438;2023-03-11T06:33:10;2.20;99.90
26081;DHT22;13991;51.174;4.438;2023-03-11T06:35:35;2.20;99.90
26081;DHT22;13991;51.174;4.438;2023-03-11T06:38:01;2.20;99.90
26081;DHT22;13991;51.174;4.438;2023-03-11T06:40:27;2.10;99.90
26081;DHT22;13991;51.174;4.438;2023-03-11T06:42:52;2.20;99.90
26081;DHT22;13991;51.174;4.438;2023-03-11T06:45:18;2.20;99.90
26081;DHT22;13991;51.174;4.438;2023-03-11T06:47:43;2.20;99.90
26081;DHT22;13991;51.174;4.438;2023-03-11T06:50:09;2.20;99.90
26081;DHT22;13991;51.174;4.438;2023-03-11T06:52:35;2.20;99.90
26081;DHT22;13991;51.174;4.438;2023-03-11T06:55:01;2.20;99.90
26081;DHT22;13991;51.174;4.438;2023-03-11T06:57:28;2.20;99.90
26081;DHT22;13991;51.174;4.438;2023-03-11T06:59:55;2.30;99.90
26081;DHT22;13991;51.174;4.438;2023-03-11T07:02:21;2.30;99.90
26081;DHT22;13991;51.174;4.438;2023-03-11T07:04:50;2.50;99.90
26081;DHT22;13991;51.174;4.438;2023-03-11T07:07:16;2.60;99.90
26081;DHT22;13991;51.174;4.438;2023-03-11T07:09:41;2.70;99.90
26081;DHT22;13991;51.174;4.438;2023-03-11T07:12:08;2.70;99.90
26081;DHT22;13991;51.174;4.438;2023-03-11T07:14:33;2.80;99.90
26081;DHT22;13991;51.174;4.438;2023-03-11T07:16:59;2.80;99.90
26081;DHT22;13991;51.174;4.438;2023-03-11T07:19:25;2.80;99.90
26081;DHT22;13991;51.174;4.438;2023-03-11T07:21:51;2.80;99.90
26081;DHT22;13991;51.174;4.438;2023-03-11T07:24:16;2.90;99.90
26081;DHT22;13991;51.174;4.438;2023-03-11T07:26:42;3.00;99.90
26081;DHT22;13991;51.174;4.438;2023-03-11T07:29:08;3.10;99.90
26081;DHT22;13991;51.174;4.438;2023-03-11T07:31:35;3.10;99.90
26081;DHT22;13991;51.174;4.438;2023-03-11T07:34:04;3.10;99.90
26081;DHT22;13991;51.174;4.438;2023-03-11T07:36:30;3.20;99.90
26081;DHT22;13991;51.174;4.438;2023-03-11T07:39:01;3.30;99.90
26081;DHT22;13991;51.174;4.438;2023-03-11T07:41:30;3.40;99.90
26081;DHT22;13991;51.174;4.438;2023-03-11T07:43:58;3.60;99.90
26081;DHT22;13991;51.174;4.438;2023-03-11T07:46:25;3.70;99.90
26081;DHT22;13991;51.174;4.438;2023-03-11T07:48:51;3.80;99.90
26081;DHT22;13991;51.174;4.438;2023-03-11T07:51:26;3.90;99.90
26081;DHT22;13991;51.174;4.438;2023-03-11T07:53:53;3.90;99.90
26081;DHT22;13991;51.174;4.438;2023-03-11T07:56:20;4.00;99.90
26081;DHT22;13991;51.174;4.438;2023-03-11T07:58:47;4.10;99.90
26081;DHT22;13991;51.174;4.438;2023-03-11T08:01:15;4.30;99.90
26081;DHT22;13991;51.174;4.438;2023-03-11T08:03:43;4.40;99.90
26081;DHT22;13991;51.174;4.438;2023-03-11T08:06:17;4.60;99.90
26081;DHT22;13991;51.174;4.438;2023-03-11T08:08:43;4.80;99.90
26081;DHT22;13991;51.174;4.438;2023-03-11T08:11:10;4.90;99.90
26081;DHT22;13991;51.174;4.438;2023-03-11T08:13:37;4.90;99.90
26081;DHT22;13991;51.174;4.438;2023-03-11T08:16:04;5.00;99.90
26081;DHT22;13991;51.174;4.438;2023-03-11T08:18:30;5.20;99.90
26081;DHT22;13991;51.174;4.438;2023-03-11T08:20:57;5.20;99.90
26081;DHT22;13991;51.174;4.438;2023-03-11T08:23:23;5.40;99.90
26081;DHT22;13991;51.174;4.438;2023-03-11T08:25:49;5.50;99.90
26081;DHT22;13991;51.174;4.438;2023-03-11T08:28:14;5.70;99.90
26081;DHT22;13991;51.174;4.438;2023-03-11T08:30:40;5.80;99.90
26081;DHT22;13991;51.174;4.438;2023-03-11T08:33:06;6.10;99.90
26081;DHT22;13991;51.174;4.438;2023-03-11T08:35:32;6.20;99.90
26081;DHT22;13991;51.174;4.438;2023-03-11T08:37:57;6.20;99.90
26081;DHT22;13991;51.174;4.438;2023-03-11T08:40:23;6.40;99.90
26081;DHT22;13991;51.174;4.438;2023-03-11T08:42:49;6.40;99.90
26081;DHT22;13991;51.174;4.438;2023-03-11T08:45:15;6.40;99.90
26081;DHT22;13991;51.174;4.438;2023-03-11T08:47:41;6.50;99.90
26081;DHT22;13991;51.174;4.438;2023-03-11T08:50:13;6.50;99.90
26081;DHT22;13991;51.174;4.438;2023-03-11T08:52:38;6.50;99.90
26081;DHT22;13991;51.174;4.438;2023-03-11T08:55:05;6.40;99.90
26081;DHT22;13991;51.174;4.438;2023-03-11T08:57:32;6.50;99.90
26081;DHT22;13991;51.174;4.438;2023-03-11T08:59:58;6.60;99.90
26081;DHT22;13991;51.174;4.438;2023-03-11T09:02:27;6.60;99.90
26081;DHT22;13991;51.174;4.438;2023-03-11T09:04:53;6.70;99.90
26081;DHT22;13991;51.174;4.438;2023-03-11T09:07:18;6.80;99.90
26081;DHT22;13991;51.174;4.438;2023-03-11T09:09:44;7.00;99.90
26081;DHT22;13991;51.174;4.438;2023-03-11T09:12:10;7.00;99.90
26081;DHT22;13991;51.174;4.438;2023-03-11T09:14:45;7.10;99.90
26081;DHT22;13991;51.174;4.438;2023-03-11T09:17:10;7.30;99.90
26081;DHT22;13991;51.174;4.438;2023-03-11T09:19:39;7.40;99.90
26081;DHT22;13991;51.174;4.438;2023-03-11T09:22:05;7.50;99.90
26081;DHT22;13991;51.174;4.438;2023-03-11T09:24:34;7.30;99.90
26081;DHT22;13991;51.174;4.438;2023-03-11T09:27:00;7.30;99.90
26081;DHT22;13991;51.174;4.438;2023-03-11T09:29:26;7.50;99.90
26081;DHT22;13991;51.174;4.438;2023-03-11T09:31:52;7.80;99.90
26081;DHT22;13991;51.174;4.438;2023-03-11T09:34:18;7.80;99.90
26081;DHT22;13991;51.174;4.438;2023-03-11T09:36:44;7.90;99.90
26081;DHT22;13991;51.174;4.438;2023-03-11T09:39:10;7.80;99.90
26081;DHT22;13991;51.174;4.438;2023-03-11T09:44:38;8.10;99.90
26081;DHT22;13991;51.174;4.438;2023-03-11T09:49:53;8.40;99.90
26081;DHT22;13991;51.174;4.438;2023-03-11T09:52:31;8.50;99.80
26081;DHT22;13991;51.174;4.438;2023-03-11T09:54:58;8.30;99.90
26081;DHT22;13991;51.174;4.438;2023-03-11T09:57:28;8.40;99.90
26081;DHT22;13991;51.174;4.438;2023-03-11T09:59:57;8.30;99.90
26081;DHT22;13991;51.174;4.438;2023-03-11T10:02:24;8.30;99.90
26081;DHT22;13991;51.174;4.438;2023-03-11T10:05:05;8.20;99.90
26081;DHT22;13991;51.174;4.438;2023-03-11T10:07:37;8.10;99.90
26081;DHT22;13991;51.174;4.438;2023-03-11T10:10:04;8.10;99.90
26081;DHT22;13991;51.174;4.438;2023-03-11T10:12:51;8.40;99.90
26081;DHT22;13991;51.174;4.438;2023-03-11T10:22:01;8.60;99.90
26081;DHT22;13991;51.174;4.438;2023-03-11T10:27:08;9.20;99.90
26081;DHT22;13991;51.174;4.438;2023-03-11T10:29:51;9.00;99.60
26081;DHT22;13991;51.174;4.438;2023-03-11T10:32:44;9.00;98.70
26081;DHT22;13991;51.174;4.438;2023-03-11T10:35:21;9.10;99.70
26081;DHT22;13991;51.174;4.438;2023-03-11T10:37:59;9.40;99.90
26081;DHT22;13991;51.174;4.438;2023-03-11T10:40:33;9.80;99.10
26081;DHT22;13991;51.174;4.438;2023-03-11T10:43:10;9.80;98.90
26081;DHT22;13991;51.174;4.438;2023-03-11T10:45:39;9.80;97.30
26081;DHT22;13991;51.174;4.438;2023-03-11T10:48:13;10.00;98.80
26081;DHT22;13991;51.174;4.438;2023-03-11T10:51:09;10.20;97.90
26081;DHT22;13991;51.174;4.438;2023-03-11T10:54:05;10.30;96.10
26081;DHT22;13991;51.174;4.438;2023-03-11T10:56:37;9.90;97.80
26081;DHT22;13991;51.174;4.438;2023-03-11T11:02:02;9.40;98.80
26081;DHT22;13991;51.174;4.438;2023-03-11T11:04:37;9.50;97.30
26081;DHT22;13991;51.174;4.438;2023-03-11T11:07:34;9.60;97.00
26081;DHT22;13991;51.174;4.438;2023-03-11T11:15:29;9.40;98.00
26081;DHT22;13991;51.174;4.438;2023-03-11T11:17:58;9.50;97.60
26081;DHT22;13991;51.174;4.438;2023-03-11T11:20:25;9.70;96.20
26081;DHT22;13991;51.174;4.438;2023-03-11T11:22:54;9.70;95.60
26081;DHT22;13991;51.174;4.438;2023-03-11T11:25:53;9.60;98.70
26081;DHT22;13991;51.174;4.438;2023-03-11T11:28:20;9.80;95.60
26081;DHT22;13991;51.174;4.438;2023-03-11T11:30:57;9.70;96.30
26081;DHT22;13991;51.174;4.438;2023-03-11T11:33:38;9.80;95.50
26081;DHT22;13991;51.174;4.438;2023-03-11T11:36:11;9.80;93.70
26081;DHT22;13991;51.174;4.438;2023-03-11T11:38:38;9.80;95.50
26081;DHT22;13991;51.174;4.438;2023-03-11T11:41:07;9.90;98.00
26081;DHT22;13991;51.174;4.438;2023-03-11T11:43:55;9.70;95.70
26081;DHT22;13991;51.174;4.438;2023-03-11T11:52:12;9.40;97.50
26081;DHT22;13991;51.174;4.438;2023-03-11T11:57:28;9.50;96.60
26081;DHT22;13991;51.174;4.438;2023-03-11T11:59:54;9.60;98.00
26081;DHT22;13991;51.174;4.438;2023-03-11T12:02:45;9.80;94.50
26081;DHT22;13991;51.174;4.438;2023-03-11T12:05:29;9.80;95.30
26081;DHT22;13991;51.174;4.438;2023-03-11T12:10:32;10.10;92.30
26081;DHT22;13991;51.174;4.438;2023-03-11T12:13:11;10.10;89.30
26081;DHT22;13991;51.174;4.438;2023-03-11T12:15:46;10.30;90.30
26081;DHT22;13991;51.174;4.438;2023-03-11T12:18:26;10.00;87.60
26081;DHT22;13991;51.174;4.438;2023-03-11T12:20:54;9.70;90.10
26081;DHT22;13991;51.174;4.438;2023-03-11T12:26:20;10.00;90.50
26081;DHT22;13991;51.174;4.438;2023-03-11T12:29:11;10.00;90.90
26081;DHT22;13991;51.174;4.438;2023-03-11T12:31:39;9.90;90.60
26081;DHT22;13991;51.174;4.438;2023-03-11T12:34:09;9.60;91.60
26081;DHT22;13991;51.174;4.438;2023-03-11T12:36:41;10.00;93.50
26081;DHT22;13991;51.174;4.438;2023-03-11T12:39:21;9.90;93.80
26081;DHT22;13991;51.174;4.438;2023-03-11T12:41:48;9.70;95.50
26081;DHT22;13991;51.174;4.438;2023-03-11T12:44:34;9.90;94.20
26081;DHT22;13991;51.174;4.438;2023-03-11T12:47:02;9.90;91.60
26081;DHT22;13991;51.174;4.438;2023-03-11T12:54:48;10.20;92.50
26081;DHT22;13991;51.174;4.438;2023-03-11T13:00:02;10.40;90.60
26081;DHT22;13991;51.174;4.438;2023-03-11T13:10:51;10.40;91.80
26081;DHT22;13991;51.174;4.438;2023-03-11T13:18:42;11.30;88.10
26081;DHT22;13991;51.174;4.438;2023-03-11T13:21:37;11.70;85.10
26081;DHT22;13991;51.174;4.438;2023-03-11T13:30:08;11.30;85.10
26081;DHT22;13991;51.174;4.438;2023-03-11T13:32:52;11.40;84.50
26081;DHT22;13991;51.174;4.438;2023-03-11T13:35:44;11.50;80.60
26081;DHT22;13991;51.174;4.438;2023-03-11T13:40:57;11.20;82.60
26081;DHT22;13991;51.174;4.438;2023-03-11T13:43:25;10.70;84.30
26081;DHT22;13991;51.174;4.438;2023-03-11T13:45:58;10.20;87.50
26081;DHT22;13991;51.174;4.438;2023-03-11T13:48:30;10.20;88.10
26081;DHT22;13991;51.174;4.438;2023-03-11T13:51:00;10.40;87.00
26081;DHT22;13991;51.174;4.438;2023-03-11T13:53:36;10.80;87.10
26081;DHT22;13991;51.174;4.438;2023-03-11T13:56:04;11.20;84.00
26081;DHT22;13991;51.174;4.438;2023-03-11T13:58:30;11.10;86.10
26081;DHT22;13991;51.174;4.438;2023-03-11T14:01:00;11.00;83.70
26081;DHT22;13991;51.174;4.438;2023-03-11T14:03:35;11.10;82.00
26081;DHT22;13991;51.174;4.438;2023-03-11T14:06:04;11.30;82.00
26081;DHT22;13991;51.174;4.438;2023-03-11T14:08:36;11.20;84.60
26081;DHT22;13991;51.174;4.438;2023-03-11T14:11:26;11.20;82.80
26081;DHT22;13991;51.174;4.438;2023-03-11T14:13:53;11.60;82.40
26081;DHT22;13991;51.174;4.438;2023-03-11T14:16:29;11.70;83.20
26081;DHT22;13991;51.174;4.438;2023-03-11T14:19:04;11.50;78.70
26081;DHT22;13991;51.174;4.438;2023-03-11T14:21:33;11.60;81.50
26081;DHT22;13991;51.174;4.438;2023-03-11T14:24:00;11.40;83.70
26081;DHT22;13991;51.174;4.438;2023-03-11T14:26:29;11.40;82.90
26081;DHT22;13991;51.174;4.438;2023-03-11T14:29:01;11.20;83.00
26081;DHT22;13991;51.174;4.438;2023-03-11T14:31:34;10.90;81.20
26081;DHT22;13991;51.174;4.438;2023-03-11T14:36:52;10.80;81.20
26081;DHT22;13991;51.174;4.438;2023-03-11T14:39:38;10.90;82.70
26081;DHT22;13991;51.174;4.438;2023-03-11T14:44:40;11.20;81.90
26081;DHT22;13991;51.174;4.438;2023-03-11T14:47:32;11.30;81.00
26081;DHT22;13991;51.174;4.438;2023-03-11T14:49:56;11.30;78.80
26081;DHT22;13991;51.174;4.438;2023-03-11T14:52:35;11.00;76.80
26081;DHT22;13991;51.174;4.438;2023-03-11T14:55:07;10.80;79.00
26081;DHT22;13991;51.174;4.438;2023-03-11T14:58:10;10.80;81.30
26081;DHT22;13991;51.174;4.438;2023-03-11T15:00:41;10.90;82.50
26081;DHT22;13991;51.174;4.438;2023-03-11T15:05:50;10.80;77.60
26081;DHT22;13991;51.174;4.438;2023-03-11T15:08:20;10.80;79.10
26081;DHT22;13991;51.174;4.438;2023-03-11T15:13:34;10.60;78.40
26081;DHT22;13991;51.174;4.438;2023-03-11T15:16:02;10.30;79.70
26081;DHT22;13991;51.174;4.438;2023-03-11T15:18:37;10.20;81.80
26081;DHT22;13991;51.174;4.438;2023-03-11T15:21:14;10.30;80.50
26081;DHT22;13991;51.174;4.438;2023-03-11T15:26:25;10.40;82.30
26081;DHT22;13991;51.174;4.438;2023-03-11T15:29:13;10.40;80.70
26081;DHT22;13991;51.174;4.438;2023-03-11T15:31:43;10.40;80.70
26081;DHT22;13991;51.174;4.438;2023-03-11T15:34:21;10.50;81.60
26081;DHT22;13991;51.174;4.438;2023-03-11T15:42:30;10.50;78.00
26081;DHT22;13991;51.174;4.438;2023-03-11T15:47:04;10.00;77.20
26081;DHT22;13991;51.174;4.438;2023-03-11T15:49:30;10.10;80.30
26081;DHT22;13991;51.174;4.438;2023-03-11T15:52:00;10.40;78.50
26081;DHT22;13991;51.174;4.438;2023-03-11T15:54:26;10.30;78.80
26081;DHT22;13991;51.174;4.438;2023-03-11T15:56:54;10.10;79.70
26081;DHT22;13991;51.174;4.438;2023-03-11T15:59:21;9.90;81.90
26081;DHT22;13991;51.174;4.438;2023-03-11T16:01:47;9.70;81.00
26081;DHT22;13991;51.174;4.438;2023-03-11T16:04:15;9.60;81.40
26081;DHT22;13991;51.174;4.438;2023-03-11T16:06:41;9.40;82.80
26081;DHT22;13991;51.174;4.438;2023-03-11T16:09:07;9.40;82.80
26081;DHT22;13991;51.174;4.438;2023-03-11T16:11:34;9.60;81.70
26081;DHT22;13991;51.174;4.438;2023-03-11T16:14:00;9.40;83.10
26081;DHT22;13991;51.174;4.438;2023-03-11T16:16:26;9.50;83.90
26081;DHT22;13991;51.174;4.438;2023-03-11T16:18:52;9.50;85.50
26081;DHT22;13991;51.174;4.438;2023-03-11T16:21:20;9.60;86.90
26081;DHT22;13991;51.174;4.438;2023-03-11T16:23:46;9.50;90.70
26081;DHT22;13991;51.174;4.438;2023-03-11T16:26:13;9.50;91.30
26081;DHT22;13991;51.174;4.438;2023-03-11T16:28:39;9.50;91.80
26081;DHT22;13991;51.174;4.438;2023-03-11T16:31:06;9.50;92.40
26081;DHT22;13991;51.174;4.438;2023-03-11T16:33:35;9.40;93.00
26081;DHT22;13991;51.174;4.438;2023-03-11T16:36:02;9.40;92.30
26081;DHT22;13991;51.174;4.438;2023-03-11T16:38:29;9.40;91.30
26081;DHT22;13991;51.174;4.438;2023-03-11T16:41:00;9.30;89.00
26081;DHT22;13991;51.174;4.438;2023-03-11T16:43:28;9.30;93.00
26081;DHT22;13991;51.174;4.438;2023-03-11T16:45:54;9.20;92.50
26081;DHT22;13991;51.174;4.438;2023-03-11T16:48:21;9.10;93.70
26081;DHT22;13991;51.174;4.438;2023-03-11T16:50:47;9.20;95.30
26081;DHT22;13991;51.174;4.438;2023-03-11T16:53:13;9.20;96.20
26081;DHT22;13991;51.174;4.438;2023-03-11T16:55:41;9.10;95.70
26081;DHT22;13991;51.174;4.438;2023-03-11T16:58:07;9.10;96.80
26081;DHT22;13991;51.174;4.438;2023-03-11T17:00:33;9.00;96.80
26081;DHT22;13991;51.174;4.438;2023-03-11T17:02:59;9.10;96.30
26081;DHT22;13991;51.174;4.438;2023-03-11T17:05:25;9.10;97.60
26081;DHT22;13991;51.174;4.438;2023-03-11T17:07:55;9.10;99.80
26081;DHT22;13991;51.174;4.438;2023-03-11T17:10:24;9.10;98.50
26081;DHT22;13991;51.174;4.438;2023-03-11T17:12:51;9.20;98.20
26081;DHT22;13991;51.174;4.438;2023-03-11T17:15:16;9.10;98.10
26081;DHT22;13991;51.174;4.438;2023-03-11T17:17:42;9.10;97.30
26081;DHT22;13991;51.174;4.438;2023-03-11T17:20:08;9.10;99.70
26081;DHT22;13991;51.174;4.438;2023-03-11T17:22:35;9.10;99.90
26081;DHT22;13991;51.174;4.438;2023-03-11T17:25:00;9.00;99.60